Time;durP1;ratioP1;P1;durP2;ratioP2;P2;SDS_P1;SDS_P2;PMS_P1;PMS_P2;Temp;Humidity;BMP_temperature;BMP_pressure;BME280_temperature;BME280_humidity;BME280_pressure;Samples;Min_cycle;Max_cycle;Signal;HPM_P1;HPM_P2
2023/04/13 00:01:50;;;;;;;6.57;6.00;;;9.90;1.00;;;;;;4876160;29;20563;-82
2023/04/13 00:04:18;;;;;;;6.97;6.37;;;9.80;1.00;;;;;;4870924;29;20492;-80
2023/04/13 00:06:45;;;;;;;7.00;6.40;;;9.80;1.00;;;;;;4872923;29;20496;-81
2023/04/13 00:09:15;;;;;;;6.90;6.23;;;9.70;1.00;;;;;;4878491;29;20453;-82
2023/04/13 00:11:42;;;;;;;6.80;6.10;;;9.70;1.00;;;;;;4872568;29;20476;-81
2023/04/13 00:14:09;;;;;;;7.20;6.50;;;9.60;1.00;;;;;;4866861;29;20467;-82
2023/04/13 00:16:37;;;;;;;7.73;7.03;;;9.70;1.00;;;;;;4876176;29;20484;-82
2023/04/13 00:19:05;;;;;;;7.03;6.43;;;9.60;1.00;;;;;;4872891;29;20505;-81
2023/04/13 00:21:33;;;;;;;6.97;6.27;;;9.60;1.00;;;;;;4875491;29;20548;-81
2023/04/13 00:24:00;;;;;;;7.23;6.63;;;9.50;1.00;;;;;;4877491;29;20445;-80
2023/04/13 00:26:27;;;;;;;7.90;7.17;;;9.50;1.00;;;;;;4872248;29;20460;-82
2023/04/13 00:28:54;;;;;;;9.50;7.33;;;9.50;1.00;;;;;;4858072;29;20472;-81
2023/04/13 00:31:22;;;;;;;7.43;6.70;;;9.40;1.00;;;;;;4885958;29;20602;-81
2023/04/13 00:33:50;;;;;;;9.40;7.00;;;9.50;1.00;;;;;;4874002;29;20509;-81
2023/04/13 00:36:17;;;;;;;11.30;8.13;;;9.30;1.00;;;;;;4874972;29;20464;-80
2023/04/13 00:38:45;;;;;;;8.57;7.50;;;9.30;1.00;;;;;;4871371;29;20507;-82
2023/04/13 00:41:12;;;;;;;7.80;7.20;;;9.30;1.00;;;;;;4875690;29;20472;-82
2023/04/13 00:43:41;;;;;;;8.20;7.40;;;9.10;1.00;;;;;;4878820;29;20444;-82
2023/04/13 00:46:08;;;;;;;8.27;7.47;;;9.10;1.00;;;;;;4876756;29;20535;-82
2023/04/13 00:48:35;;;;;;;8.60;7.90;;;9.00;1.00;;;;;;4882110;29;20570;-81
2023/04/13 00:51:05;;;;;;;8.77;7.97;;;9.00;1.00;;;;;;4879833;29;20472;-83
2023/04/13 00:53:32;;;;;;;8.67;7.80;;;9.00;1.00;;;;;;4877401;29;20480;-82
2023/04/13 00:56:02;;;;;;;10.70;8.00;;;9.10;1.00;;;;;;4877910;29;20478;-82
2023/04/13 00:58:30;;;;;;;8.73;7.83;;;9.10;1.00;;;;;;4880026;29;20519;-83
2023/04/13 01:00:57;;;;;;;8.23;7.43;;;9.10;1.00;;;;;;4880748;29;20485;-86
2023/04/13 01:03:26;;;;;;;8.87;8.07;;;9.00;1.00;;;;;;4900559;23;20476;-80
2023/04/13 01:06:16;;;;;;;9.60;8.70;;;9.10;1.00;;;;;;4873229;29;20484;-80
2023/04/13 01:11:49;;;;;;;16.93;11.10;;;9.10;1.00;;;;;;4864979;29;20464;-84
2023/04/13 01:20:08;;;;;;;31.57;19.40;;;9.00;1.00;;;;;;4873340;29;20456;-81
2023/04/13 01:22:40;;;;;;;25.53;16.33;;;9.10;1.00;;;;;;4878838;29;20525;-81
2023/04/13 01:25:56;;;;;;;22.50;16.03;;;9.00;1.00;;;;;;4879405;29;21229;-81
2023/04/13 01:28:32;;;;;;;16.20;12.80;;;9.00;1.00;;;;;;4873273;29;20547;-83
2023/04/13 01:31:12;;;;;;;15.87;11.90;;;9.00;1.00;;;;;;4873745;29;21328;-81
2023/04/13 01:33:47;;;;;;;13.23;11.43;;;9.00;1.00;;;;;;4867627;29;21080;-81
2023/04/13 01:36:16;;;;;;;12.37;11.10;;;9.00;1.00;;;;;;4850017;29;20482;-81
2023/04/13 01:41:25;;;;;;;11.70;10.60;;;8.90;1.00;;;;;;4869819;29;20953;-81
2023/04/13 01:52:32;;;;;;;11.00;9.93;;;8.80;1.00;;;;;;4873413;29;20472;-81
2023/04/13 02:06:43;;;;;;;10.50;9.30;;;8.60;1.00;;;;;;4883366;29;20511;-81
2023/04/13 02:14:46;;;;;;;13.63;10.83;;;8.50;1.00;;;;;;4870954;29;20468;-81
2023/04/13 02:17:20;;;;;;;10.90;9.80;;;8.40;1.00;;;;;;4858828;29;20539;-81
2023/04/13 02:19:50;;;;;;;11.00;10.00;;;8.40;1.00;;;;;;4870428;29;20436;-81
2023/04/13 02:22:26;;;;;;;13.00;10.67;;;8.40;1.00;;;;;;4854542;29;20473;-80
2023/04/13 02:24:55;;;;;;;11.93;10.73;;;8.30;1.00;;;;;;4872792;29;20465;-81
2023/04/13 02:27:29;;;;;;;12.00;10.80;;;8.30;1.00;;;;;;4870119;29;20592;-80
2023/04/13 02:30:04;;;;;;;13.93;10.80;;;8.30;1.00;;;;;;4875491;29;20509;-81
2023/04/13 02:32:56;;;;;;;12.13;9.80;;;8.30;1.00;;;;;;4879971;29;20466;-81
2023/04/13 02:35:24;;;;;;;15.13;10.77;;;8.20;1.00;;;;;;4858092;28;20548;-80
2023/04/13 02:37:57;;;;;;;11.33;10.30;;;8.20;1.00;;;;;;4864417;29;20476;-81
2023/04/13 02:40:28;;;;;;;11.07;9.67;;;8.10;1.00;;;;;;4878504;29;20525;-83
2023/04/13 02:43:07;;;;;;;11.23;10.07;;;8.00;1.00;;;;;;4865916;29;20566;-83
2023/04/13 02:45:39;;;;;;;11.27;9.23;;;8.00;1.00;;;;;;4886794;29;20434;-82
2023/04/13 02:48:16;;;;;;;12.37;9.17;;;8.00;1.00;;;;;;4866097;29;20457;-87
2023/04/13 02:50:46;;;;;;;10.00;8.87;;;8.00;1.00;;;;;;4879591;29;20487;-81
2023/04/13 02:53:19;;;;;;;10.67;8.57;;;7.90;1.00;;;;;;4852800;29;20536;-80
2023/04/13 02:56:02;;;;;;;9.37;8.37;;;7.90;1.00;;;;;;4868607;29;20964;-82
2023/04/13 02:58:36;;;;;;;11.33;8.83;;;7.90;1.00;;;;;;4870511;29;20476;-82
2023/04/13 03:07:13;;;;;;;9.93;7.97;;;7.80;1.00;;;;;;4840746;29;20489;-80
2023/04/13 03:09:48;;;;;;;10.00;8.03;;;7.70;1.00;;;;;;4866804;29;20475;-82
2023/04/13 03:12:16;;;;;;;11.30;8.23;;;7.60;1.00;;;;;;4836080;29;20468;-80
2023/04/13 03:14:43;;;;;;;10.03;8.47;;;7.60;1.00;;;;;;4873377;29;20543;-81
2023/04/13 03:17:24;;;;;;;13.27;8.27;;;7.60;1.00;;;;;;4847702;29;20980;-84
2023/04/13 03:20:03;;;;;;;10.73;8.57;;;7.60;1.00;;;;;;4879253;29;20779;-81
2023/04/13 03:22:40;;;;;;;10.43;8.47;;;7.60;1.00;;;;;;4861711;29;20544;-81
2023/04/13 03:25:22;;;;;;;10.67;8.40;;;7.70;1.00;;;;;;4856262;29;20472;-82
2023/04/13 03:42:23;;;;;;;10.50;6.50;;;7.80;1.00;;;;;;4840858;29;20954;-81
2023/04/13 03:44:56;;;;;;;9.37;8.23;;;7.80;1.00;;;;;;4843991;29;20487;-82
2023/04/13 03:47:23;;;;;;;7.63;6.67;;;7.80;1.00;;;;;;4885701;29;20957;-79
2023/04/13 03:52:56;;;;;;;7.97;6.00;;;7.90;1.00;;;;;;4869429;29;20628;-82
2023/04/13 03:55:30;;;;;;;8.70;5.97;;;7.90;1.00;;;;;;4870896;29;20977;-84
2023/04/13 04:04:02;;;;;;;7.67;5.37;;;7.90;1.00;;;;;;4974801;23;20463;-79
2023/04/13 04:06:30;;;;;;;9.40;6.47;;;7.90;1.00;;;;;;4915094;29;20471;-79
2023/04/13 04:08:57;;;;;;;6.27;5.27;;;7.90;1.00;;;;;;4898081;29;20550;-81
2023/04/13 04:11:24;;;;;;;8.60;6.30;;;7.90;1.00;;;;;;4883779;29;20459;-81
2023/04/13 04:13:54;;;;;;;8.07;5.60;;;7.90;1.00;;;;;;4908480;29;20549;-79
2023/04/13 04:16:21;;;;;;;6.50;5.77;;;8.00;1.00;;;;;;4912263;29;20475;-80
2023/04/13 04:18:50;;;;;;;7.97;5.40;;;8.00;1.00;;;;;;4919224;29;20539;-81
2023/04/13 04:21:20;;;;;;;7.23;5.83;;;7.90;1.00;;;;;;4916281;29;20490;-80
2023/04/13 04:23:47;;;;;;;7.23;5.47;;;7.90;1.00;;;;;;4913743;29;21249;-80
2023/04/13 04:26:16;;;;;;;8.37;5.80;;;8.00;1.00;;;;;;4914638;29;21357;-80
2023/04/13 04:28:43;;;;;;;7.73;5.50;;;8.00;1.00;;;;;;4912331;29;20473;-81
2023/04/13 04:31:12;;;;;;;10.23;6.03;;;8.00;1.00;;;;;;4917172;29;20430;-80
2023/04/13 04:33:39;;;;;;;13.50;9.80;;;8.00;1.00;;;;;;4906801;29;20435;-80
2023/04/13 04:36:12;;;;;;;6.77;5.60;;;8.00;1.00;;;;;;4906807;29;20501;-81
2023/04/13 04:38:40;;;;;;;7.03;6.33;;;8.00;1.00;;;;;;4914406;29;20986;-80
2023/04/13 04:41:07;;;;;;;7.23;6.20;;;7.90;1.00;;;;;;4909495;29;20578;-80
2023/04/13 04:43:36;;;;;;;6.97;6.13;;;8.00;1.00;;;;;;4911644;29;20562;-80
2023/04/13 04:46:07;;;;;;;8.47;5.97;;;8.00;1.00;;;;;;4907372;29;20479;-80
2023/04/13 04:48:36;;;;;;;8.53;6.43;;;8.10;1.00;;;;;;4909577;29;21287;-80
2023/04/13 04:51:04;;;;;;;7.17;6.47;;;8.10;1.00;;;;;;4905190;29;20462;-81
2023/04/13 04:53:31;;;;;;;8.10;7.30;;;8.00;1.00;;;;;;4909887;29;21188;-80
2023/04/13 04:55:58;;;;;;;8.27;6.77;;;7.90;1.00;;;;;;4907021;29;20497;-81
2023/04/13 04:58:25;;;;;;;9.37;6.40;;;7.80;1.00;;;;;;4904945;29;21012;-80
2023/04/13 05:00:55;;;;;;;11.80;7.30;;;7.90;1.00;;;;;;4885496;29;20464;-81
2023/04/13 05:03:22;;;;;;;9.97;7.73;;;7.90;1.00;;;;;;4906800;29;20498;-80
2023/04/13 05:05:51;;;;;;;10.00;7.17;;;7.80;1.00;;;;;;4908291;29;21081;-81
2023/04/13 05:08:19;;;;;;;11.20;8.00;;;7.80;1.00;;;;;;4912931;29;20461;-80
2023/04/13 05:10:47;;;;;;;10.67;8.17;;;7.60;1.00;;;;;;4915845;29;20444;-79
2023/04/13 05:13:17;;;;;;;10.03;7.70;;;7.70;1.00;;;;;;4915565;29;20917;-81
2023/04/13 05:15:44;;;;;;;8.37;7.43;;;7.70;1.00;;;;;;4915538;29;20488;-80
2023/04/13 05:18:14;;;;;;;10.50;8.27;;;7.80;1.00;;;;;;4912310;29;20487;-80
2023/04/13 05:20:41;;;;;;;10.83;8.77;;;7.80;1.00;;;;;;4895157;29;20962;-81
2023/04/13 05:23:11;;;;;;;14.73;8.87;;;7.90;1.00;;;;;;4911309;29;20446;-79
2023/04/13 05:25:38;;;;;;;9.40;8.47;;;8.00;1.00;;;;;;4907258;29;20450;-80
2023/04/13 05:28:05;;;;;;;10.00;7.30;;;8.00;1.00;;;;;;4903954;29;20467;-80
2023/04/13 05:30:33;;;;;;;9.90;6.93;;;8.00;1.00;;;;;;4909918;29;20458;-81
2023/04/13 05:33:04;;;;;;;9.00;7.50;;;8.00;1.00;;;;;;4912011;29;20529;-80
2023/04/13 05:35:32;;;;;;;13.83;8.10;;;7.90;1.00;;;;;;4912178;29;20506;-80
2023/04/13 05:38:00;;;;;;;12.17;7.93;;;8.00;1.00;;;;;;4914089;29;20478;-80
2023/04/13 05:40:34;;;;;;;8.23;7.10;;;8.00;1.00;;;;;;4913204;29;20455;-79
2023/04/13 05:43:01;;;;;;;11.83;9.03;;;8.20;1.00;;;;;;4912931;29;20470;-80
2023/04/13 05:45:28;;;;;;;9.07;8.07;;;8.20;1.00;;;;;;4908401;29;20467;-81
2023/04/13 05:47:55;;;;;;;9.13;7.47;;;8.20;1.00;;;;;;4914613;29;20554;-80
2023/04/13 05:50:22;;;;;;;9.47;8.40;;;8.10;1.00;;;;;;4919709;29;20498;-80
2023/04/13 05:52:49;;;;;;;13.13;8.80;;;8.20;1.00;;;;;;4913136;29;20427;-80
2023/04/13 05:55:18;;;;;;;13.50;8.53;;;8.20;1.00;;;;;;4913776;29;20573;-81
2023/04/13 05:57:47;;;;;;;10.40;7.80;;;8.20;1.00;;;;;;4913202;29;20454;-81
2023/04/13 06:00:17;;;;;;;10.87;8.33;;;8.20;1.00;;;;;;4912339;29;20471;-81
2023/04/13 06:02:47;;;;;;;10.10;8.10;;;8.30;1.00;;;;;;4909577;29;20462;-81
2023/04/13 06:05:15;;;;;;;10.37;8.37;;;8.40;1.00;;;;;;4911787;29;20618;-84
2023/04/13 06:07:43;;;;;;;12.47;8.00;;;8.60;1.00;;;;;;4919910;29;21232;-83
2023/04/13 06:10:13;;;;;;;9.47;8.63;;;8.60;1.00;;;;;;4897059;29;20466;-85
2023/04/13 06:12:41;;;;;;;10.70;8.10;;;8.70;1.00;;;;;;4916964;29;20426;-83
2023/04/13 06:15:12;;;;;;;8.10;7.30;;;8.70;1.00;;;;;;4914916;29;20491;-80
2023/04/13 06:17:39;;;;;;;10.00;7.77;;;8.70;1.00;;;;;;4915612;29;20474;-81
2023/04/13 06:20:07;;;;;;;9.87;7.43;;;8.80;1.00;;;;;;4905990;29;20565;-81
2023/04/13 06:22:34;;;;;;;7.87;6.67;;;8.80;1.00;;;;;;4914701;29;20430;-82
2023/04/13 06:25:01;;;;;;;8.57;7.67;;;8.80;1.00;;;;;;4925550;29;20525;-83
2023/04/13 06:27:32;;;;;;;7.73;6.80;;;8.90;1.00;;;;;;4916460;29;20461;-83
2023/04/13 06:30:01;;;;;;;8.37;7.43;;;8.90;1.00;;;;;;4920675;29;20472;-83
2023/04/13 06:32:30;;;;;;;8.73;6.90;;;9.00;1.00;;;;;;4916238;29;20474;-80
2023/04/13 06:34:57;;;;;;;12.40;7.10;;;9.00;1.00;;;;;;4916772;29;21303;-82
2023/04/13 06:37:25;;;;;;;9.57;7.77;;;9.00;1.00;;;;;;4920009;29;20523;-82
2023/04/13 06:39:55;;;;;;;10.30;7.50;;;9.00;1.00;;;;;;4918551;29;21297;-80
2023/04/13 06:42:22;;;;;;;9.87;7.90;;;9.10;1.00;;;;;;4922768;29;20467;-82
2023/04/13 06:44:53;;;;;;;11.77;7.07;;;9.10;1.00;;;;;;4921620;29;20485;-86
2023/04/13 06:47:20;;;;;;;7.57;6.77;;;9.20;1.00;;;;;;4915759;29;20487;-80
2023/04/13 06:49:49;;;;;;;8.33;7.00;;;9.20;1.00;;;;;;4913834;29;20455;-79
2023/04/13 06:52:16;;;;;;;7.50;5.73;;;9.30;1.00;;;;;;4912721;29;20507;-80
2023/04/13 06:54:43;;;;;;;8.53;6.90;;;9.40;1.00;;;;;;4907298;29;20561;-79
2023/04/13 06:57:12;;;;;;;7.50;6.37;;;9.40;1.00;;;;;;4907341;29;21019;-78
2023/04/13 06:59:41;;;;;;;7.87;6.10;;;9.40;1.00;;;;;;4903536;29;20473;-79
2023/04/13 07:02:12;;;;;;;6.83;6.23;;;9.50;1.00;;;;;;4903216;29;20711;-79
2023/04/13 07:04:39;;;;;;;6.60;5.50;;;9.50;1.00;;;;;;4916492;29;21289;-79
2023/04/13 07:07:10;;;;;;;7.93;5.40;;;9.50;1.00;;;;;;4910827;29;20522;-81
2023/04/13 07:09:37;;;;;;;8.60;5.40;;;9.50;1.00;;;;;;4913715;29;21401;-79
2023/04/13 07:12:06;;;;;;;7.37;6.00;;;9.50;1.00;;;;;;4916898;29;21035;-79
2023/04/13 07:14:34;;;;;;;9.03;5.90;;;9.70;1.00;;;;;;4891939;29;20571;-78
2023/04/13 07:17:01;;;;;;;6.33;5.10;;;9.50;1.00;;;;;;4914388;29;20467;-78
2023/04/13 07:19:30;;;;;;;18.53;15.73;;;9.40;1.00;;;;;;4905856;29;20493;-78
2023/04/13 07:21:58;;;;;;;7.43;5.50;;;9.50;1.00;;;;;;4915252;29;20466;-78
2023/04/13 07:24:27;;;;;;;7.60;4.70;;;9.60;1.00;;;;;;4908156;29;20454;-77
2023/04/13 07:26:56;;;;;;;5.67;4.50;;;9.80;1.00;;;;;;4909596;29;20553;-80
2023/04/13 07:29:25;;;;;;;7.63;4.30;;;9.80;1.00;;;;;;4918042;29;21420;-78
2023/04/13 07:31:52;;;;;;;8.40;4.53;;;9.70;1.00;;;;;;4915433;29;20486;-79
2023/04/13 07:34:20;;;;;;;6.00;4.50;;;9.80;1.00;;;;;;4903790;29;20459;-85
2023/04/13 07:37:14;;;;;;;7.93;6.20;;;9.90;1.00;;;;;;4910466;29;20913;-87
2023/04/13 07:39:43;;;;;;;5.30;4.10;;;10.20;1.00;;;;;;4910608;29;20459;-82
2023/04/13 07:42:11;;;;;;;8.73;5.50;;;10.40;1.00;;;;;;4917878;29;20455;-86
2023/04/13 07:44:38;;;;;;;6.00;3.97;;;10.50;1.00;;;;;;4926519;29;20984;-85
2023/04/13 07:47:06;;;;;;;4.10;3.70;;;10.60;1.00;;;;;;4919374;29;20467;-85
2023/04/13 07:49:33;;;;;;;5.50;4.23;;;10.50;1.00;;;;;;4915057;29;20486;-85
2023/04/13 07:52:00;;;;;;;5.70;3.77;;;10.50;1.00;;;;;;4917221;29;20439;-84
2023/04/13 07:54:27;;;;;;;6.43;4.57;;;10.50;1.00;;;;;;4913137;29;20455;-84
2023/04/13 07:56:57;;;;;;;7.33;3.73;;;10.70;1.00;;;;;;4915572;29;20601;-84
2023/04/13 07:59:26;;;;;;;8.67;3.93;;;10.70;1.00;;;;;;4910330;29;20497;-83
2023/04/13 08:01:53;;;;;;;4.60;3.73;;;10.90;1.00;;;;;;4923004;29;20463;-85
2023/04/13 08:04:22;;;;;;;5.47;3.90;;;11.00;1.00;;;;;;4914556;29;20460;-86
2023/04/13 08:06:54;;;;;;;4.23;3.23;;;11.20;1.00;;;;;;4922557;29;20464;-85
2023/04/13 08:09:28;;;;;;;3.57;3.27;;;11.30;1.00;;;;;;4899881;29;20508;-84
2023/04/13 08:11:56;;;;;;;6.93;3.10;;;11.30;1.00;;;;;;4914485;29;20470;-83
2023/04/13 08:14:26;;;;;;;4.10;2.83;;;11.20;1.00;;;;;;4916740;29;20499;-88
2023/04/13 08:16:53;;;;;;;3.93;3.40;;;11.30;1.00;;;;;;4922087;29;20489;-87
2023/04/13 08:19:25;;;;;;;3.27;2.83;;;11.50;1.00;;;;;;4918566;29;21376;-87
2023/04/13 08:21:55;;;;;;;3.67;2.50;;;11.50;1.00;;;;;;4908606;29;20871;-83
2023/04/13 08:24:23;;;;;;;3.07;2.70;;;11.30;1.00;;;;;;4902135;29;20495;-84
2023/04/13 08:26:51;;;;;;;4.27;3.00;;;11.40;1.00;;;;;;4916903;29;20964;-83
2023/04/13 08:29:19;;;;;;;3.60;2.77;;;11.60;1.00;;;;;;4899489;29;20476;-82
2023/04/13 08:31:47;;;;;;;2.60;2.40;;;11.80;1.00;;;;;;4919265;29;20456;-83
2023/04/13 08:34:14;;;;;;;8.13;3.30;;;11.90;1.00;;;;;;4923536;29;20508;-85
2023/04/13 08:36:44;;;;;;;3.40;2.37;;;12.00;1.00;;;;;;4919769;29;20978;-83
2023/04/13 08:39:12;;;;;;;2.67;2.23;;;12.10;1.00;;;;;;4913020;29;20456;-85
2023/04/13 08:41:40;;;;;;;4.43;2.33;;;12.30;1.00;;;;;;4913949;29;20517;-83
2023/04/13 08:44:08;;;;;;;3.10;2.10;;;12.40;1.00;;;;;;4908824;29;20563;-83
2023/04/13 08:46:37;;;;;;;5.50;3.10;;;12.30;1.00;;;;;;4916629;29;20484;-83
2023/04/13 08:49:11;;;;;;;2.67;2.03;;;12.30;1.00;;;;;;4915093;29;20485;-83
2023/04/13 08:51:42;;;;;;;4.43;2.17;;;12.20;1.00;;;;;;4917078;29;20486;-83
2023/04/13 08:54:10;;;;;;;5.93;3.00;;;12.10;1.00;;;;;;4914437;29;20481;-85
2023/04/13 08:56:41;;;;;;;5.90;2.37;;;12.30;1.00;;;;;;4917185;29;20478;-85
2023/04/13 08:59:08;;;;;;;3.47;2.63;;;12.40;1.00;;;;;;4906931;29;20477;-85
2023/04/13 09:01:39;;;;;;;2.97;1.90;;;12.40;1.00;;;;;;4905313;29;20480;-84
2023/04/13 09:04:09;;;;;;;6.37;2.83;;;12.30;1.00;;;;;;4919597;29;20476;-83
2023/04/13 09:06:40;;;;;;;3.57;2.23;;;12.50;1.00;;;;;;4917548;29;20971;-82
2023/04/13 09:09:12;;;;;;;3.13;1.63;;;12.60;1.00;;;;;;4905155;29;20535;-80
2023/04/13 09:11:41;;;;;;;2.13;1.73;;;13.00;1.00;;;;;;4913308;29;20508;-81
2023/04/13 09:14:11;;;;;;;3.20;1.90;;;13.30;1.00;;;;;;4919537;29;20487;-83
2023/04/13 09:16:41;;;;;;;2.97;2.20;;;13.60;1.00;;;;;;4914474;29;20486;-81
2023/04/13 09:19:08;;;;;;;2.30;1.70;;;13.80;1.00;;;;;;4915158;29;20466;-81
2023/04/13 09:21:42;;;;;;;2.13;1.63;;;13.90;1.00;;;;;;4912275;29;20458;-80
2023/04/13 09:24:10;;;;;;;1.40;1.30;;;14.20;1.00;;;;;;4915083;29;20493;-79
2023/04/13 09:26:41;;;;;;;1.73;1.63;;;14.30;1.00;;;;;;4918202;29;20470;-80
2023/04/13 09:29:15;;;;;;;2.30;1.33;;;14.30;1.00;;;;;;4914323;29;20453;-81
2023/04/13 09:31:49;;;;;;;2.27;1.23;;;14.30;1.00;;;;;;4908136;28;20481;-80
2023/04/13 09:34:27;;;;;;;3.17;1.53;;;14.00;1.00;;;;;;4919001;29;20508;-82
2023/04/13 09:36:54;;;;;;;2.03;1.17;;;13.60;1.00;;;;;;4918004;29;20551;-81
2023/04/13 09:39:28;;;;;;;3.53;1.93;;;13.60;1.00;;;;;;4915674;29;20572;-81
2023/04/13 09:41:57;;;;;;;1.90;1.63;;;13.70;1.00;;;;;;4921338;29;20870;-79
2023/04/13 09:44:26;;;;;;;3.77;1.90;;;13.90;1.00;;;;;;4914192;29;20481;-79
2023/04/13 09:46:59;;;;;;;7.20;6.60;;;14.20;1.00;;;;;;4912818;29;21189;-80
2023/04/13 09:49:36;;;;;;;3.97;1.30;;;14.60;1.00;;;;;;4917227;29;20508;-82
2023/04/13 09:52:18;;;;;;;4.13;1.20;;;15.00;1.00;;;;;;4916015;29;20621;-83
2023/04/13 09:54:49;;;;;;;2.43;1.43;;;16.00;1.00;;;;;;4915551;29;20489;-80
2023/04/13 09:57:24;;;;;;;3.50;1.50;;;17.00;1.00;;;;;;4917618;29;20455;-81
2023/04/13 09:59:52;;;;;;;3.03;1.50;;;17.10;1.00;;;;;;4917775;29;20502;-80
2023/04/13 10:02:24;;;;;;;1.20;1.00;;;16.80;1.00;;;;;;4917924;29;21207;-80
2023/04/13 10:04:52;;;;;;;1.77;1.27;;;16.70;1.00;;;;;;4917453;29;20566;-78
2023/04/13 10:07:25;;;;;;;3.43;1.63;;;16.90;1.00;;;;;;4916483;29;20471;-77
2023/04/13 10:09:53;;;;;;;2.20;1.40;;;17.00;1.00;;;;;;4911046;29;20450;-80
2023/04/13 10:12:21;;;;;;;3.77;1.60;;;16.40;1.00;;;;;;4911494;29;20467;-79
2023/04/13 10:14:49;;;;;;;1.50;1.30;;;16.80;1.00;;;;;;4910989;29;21601;-79
2023/04/13 10:17:33;;;;;;;2.27;1.90;;;17.20;1.00;;;;;;4911789;29;20465;-79
2023/04/13 10:20:08;;;;;;;2.60;1.53;;;17.60;1.00;;;;;;4910186;29;20461;-78
2023/04/13 10:22:37;;;;;;;2.30;1.50;;;18.00;1.00;;;;;;4911468;29;20470;-78
2023/04/13 10:25:06;;;;;;;3.30;2.00;;;18.10;1.00;;;;;;4914710;29;20476;-78
2023/04/13 10:27:35;;;;;;;3.20;1.80;;;17.80;1.00;;;;;;4911585;29;20505;-78
2023/04/13 10:30:14;;;;;;;2.70;1.47;;;17.40;1.00;;;;;;4913482;29;20485;-78
2023/04/13 10:32:43;;;;;;;3.53;2.10;;;16.10;1.00;;;;;;4914972;29;20523;-78
2023/04/13 10:35:14;;;;;;;2.13;1.30;;;15.80;1.00;;;;;;4910639;29;20494;-78
2023/04/13 10:37:44;;;;;;;4.07;1.93;;;15.90;1.00;;;;;;4911618;29;20526;-78
2023/04/13 10:40:15;;;;;;;2.10;1.30;;;15.90;1.00;;;;;;4914878;29;20554;-79
2023/04/13 10:42:45;;;;;;;1.80;1.30;;;15.80;1.00;;;;;;4915255;29;20466;-78
2023/04/13 10:45:20;;;;;;;4.87;2.30;;;15.60;1.00;;;;;;4911557;29;20989;-80
2023/04/13 10:47:50;;;;;;;2.07;1.10;;;15.80;1.00;;;;;;4913116;29;20462;-78
2023/04/13 10:50:18;;;;;;;2.03;1.33;;;16.60;1.00;;;;;;4916071;29;20494;-78
2023/04/13 10:53:03;;;;;;;1.60;0.97;;;16.80;1.00;;;;;;4913710;29;20470;-79
2023/04/13 10:55:30;;;;;;;1.67;1.03;;;16.50;1.00;;;;;;4913210;29;20509;-78
2023/04/13 10:58:05;;;;;;;5.17;1.27;;;16.50;1.00;;;;;;4915960;29;20545;-77
2023/04/13 11:00:33;;;;;;;2.30;1.10;;;16.50;1.00;;;;;;4906554;29;20514;-78
2023/04/13 11:03:05;;;;;;;1.20;0.93;;;16.40;1.00;;;;;;4912530;29;20468;-78
2023/04/13 11:05:33;;;;;;;1.80;1.07;;;16.30;1.00;;;;;;4913661;29;21241;-79
2023/04/13 11:08:04;;;;;;;1.83;1.40;;;16.10;1.00;;;;;;4910392;29;20459;-78
2023/04/13 11:10:31;;;;;;;1.80;1.40;;;15.80;1.00;;;;;;4906718;29;20483;-78
2023/04/13 11:12:59;;;;;;;3.67;1.50;;;15.60;1.00;;;;;;4912584;29;20478;-78
2023/04/13 11:15:28;;;;;;;2.00;1.07;;;15.80;1.00;;;;;;4911978;29;20484;-79
2023/04/13 11:17:57;;;;;;;2.63;1.30;;;15.80;1.00;;;;;;4913905;29;20547;-78
2023/04/13 11:20:32;;;;;;;2.43;1.27;;;15.80;1.00;;;;;;4916797;29;20475;-78
2023/04/13 11:23:02;;;;;;;2.00;1.43;;;15.40;1.00;;;;;;4905437;29;20485;-78
2023/04/13 11:25:30;;;;;;;3.13;1.40;;;15.30;1.00;;;;;;4908506;29;21362;-78
2023/04/13 11:28:00;;;;;;;1.90;1.00;;;15.50;1.00;;;;;;4915738;29;20459;-83
2023/04/13 11:30:27;;;;;;;2.40;1.33;;;15.70;1.00;;;;;;4912905;29;20462;-80
2023/04/13 11:32:57;;;;;;;2.97;1.77;;;15.80;1.00;;;;;;4914828;29;20455;-83
2023/04/13 11:35:24;;;;;;;2.17;1.20;;;15.80;1.00;;;;;;4918697;29;20577;-82
2023/04/13 11:37:55;;;;;;;2.97;1.60;;;15.60;1.00;;;;;;4916139;29;20463;-81
2023/04/13 11:40:26;;;;;;;3.50;2.30;;;16.00;1.00;;;;;;4917591;29;20463;-82
2023/04/13 11:42:54;;;;;;;1.33;1.23;;;16.00;1.00;;;;;;4911075;29;21023;-81
2023/04/13 11:45:23;;;;;;;1.73;0.90;;;15.90;1.00;;;;;;4913827;29;20471;-86
2023/04/13 11:47:51;;;;;;;1.87;1.10;;;15.40;1.00;;;;;;4919982;29;20479;-87
2023/04/13 11:50:20;;;;;;;2.23;1.80;;;15.30;1.00;;;;;;4917078;29;20496;-84
2023/04/13 11:52:51;;;;;;;1.40;1.30;;;15.20;1.00;;;;;;4917902;29;20415;-85
2023/04/13 11:55:20;;;;;;;1.70;1.27;;;15.20;1.00;;;;;;4920908;29;20458;-82
2023/04/13 11:57:48;;;;;;;1.83;1.10;;;15.20;1.00;;;;;;4916420;29;20522;-83
2023/04/13 12:00:23;;;;;;;2.33;1.53;;;15.60;1.00;;;;;;4920723;29;20473;-83
2023/04/13 12:02:51;;;;;;;1.87;1.10;;;16.00;1.00;;;;;;4916585;29;20457;-82
2023/04/13 12:05:25;;;;;;;4.20;1.50;;;16.30;1.00;;;;;;4916887;29;20486;-83
2023/04/13 12:07:54;;;;;;;2.87;1.20;;;16.40;1.00;;;;;;4914721;29;20894;-84
2023/04/13 12:10:25;;;;;;;2.00;1.73;;;16.40;1.00;;;;;;4909104;29;21128;-84
2023/04/13 12:12:59;;;;;;;4.43;1.43;;;16.30;1.00;;;;;;4894351;29;20438;-81
2023/04/13 12:15:28;;;;;;;3.90;2.43;;;15.80;1.00;;;;;;4921436;29;20558;-83
2023/04/13 12:17:58;;;;;;;2.03;1.30;;;15.90;1.00;;;;;;4926079;29;20464;-82
2023/04/13 12:20:25;;;;;;;3.20;3.00;;;16.10;1.00;;;;;;4916015;29;20463;-85
2023/04/13 12:22:56;;;;;;;2.40;1.37;;;16.20;1.00;;;;;;4922125;29;20463;-84
2023/04/13 12:25:27;;;;;;;2.17;1.43;;;16.40;1.00;;;;;;4927567;29;20971;-84
2023/04/13 12:27:54;;;;;;;2.30;1.57;;;16.30;1.00;;;;;;4899490;29;20511;-85
2023/04/13 12:30:22;;;;;;;3.47;2.87;;;16.50;1.00;;;;;;4904440;29;20464;-86
2023/04/13 12:32:54;;;;;;;2.33;1.60;;;16.90;1.00;;;;;;4921319;29;20467;-87
2023/04/13 12:35:21;;;;;;;1.27;0.90;;;17.30;1.00;;;;;;4905902;29;20475;-84
2023/04/13 12:37:51;;;;;;;2.37;1.90;;;17.20;1.00;;;;;;4902042;29;20472;-82
2023/04/13 12:40:18;;;;;;;2.23;1.20;;;17.30;1.00;;;;;;4920099;29;20470;-81
2023/04/13 12:42:47;;;;;;;4.03;1.50;;;17.90;1.00;;;;;;4923463;29;20475;-81
2023/04/13 12:45:18;;;;;;;1.93;1.23;;;17.90;1.00;;;;;;4920829;29;21379;-83
2023/04/13 12:47:45;;;;;;;1.77;1.33;;;18.00;1.00;;;;;;4922812;29;20465;-84
2023/04/13 12:50:13;;;;;;;2.40;1.47;;;17.70;1.00;;;;;;4922883;29;20447;-84
2023/04/13 12:52:44;;;;;;;3.00;1.20;;;17.90;1.00;;;;;;4901077;29;20517;-87
2023/04/13 12:55:12;;;;;;;5.53;1.30;;;19.20;1.00;;;;;;4913185;29;20940;-88
2023/04/13 12:57:39;;;;;;;2.40;1.13;;;20.80;1.00;;;;;;4926390;29;20552;-88
2023/04/13 13:00:11;;;;;;;2.33;1.37;;;22.10;1.00;;;;;;4915751;29;20456;-83
2023/04/13 13:02:39;;;;;;;2.07;1.23;;;22.70;1.00;;;;;;4924137;29;20429;-88
2023/04/13 13:05:08;;;;;;;3.67;1.83;;;23.20;1.00;;;;;;4920708;29;20508;-87
2023/04/13 13:07:36;;;;;;;1.60;1.40;;;22.80;1.00;;;;;;4926057;29;20487;-86
2023/04/13 13:10:04;;;;;;;3.57;1.70;;;21.80;1.00;;;;;;4923124;29;20468;-87
2023/04/13 13:12:32;;;;;;;1.97;1.13;;;20.40;1.00;;;;;;4923603;29;20555;-87
2023/04/13 13:15:00;;;;;;;2.50;1.20;;;20.00;1.00;;;;;;4923741;29;20447;-87
2023/04/13 13:17:29;;;;;;;1.70;1.30;;;19.90;1.00;;;;;;4924346;29;20488;-86
2023/04/13 13:19:59;;;;;;;1.67;1.50;;;19.10;1.00;;;;;;4900398;29;20478;-87
2023/04/13 13:22:30;;;;;;;5.30;2.17;;;19.50;1.00;;;;;;4905337;29;20428;-86
2023/04/13 13:24:58;;;;;;;2.87;2.57;;;19.70;1.00;;;;;;4904524;29;21009;-88
2023/04/13 13:27:25;;;;;;;3.33;1.40;;;20.00;1.00;;;;;;4921925;29;20496;-81
2023/04/13 13:29:53;;;;;;;2.10;1.60;;;20.40;1.00;;;;;;4925197;29;20525;-88
2023/04/13 13:32:20;;;;;;;3.10;1.83;;;21.70;1.00;;;;;;4929537;29;20487;-87
2023/04/13 13:34:50;;;;;;;1.70;1.47;;;22.80;1.00;;;;;;4915359;29;20479;-86
2023/04/13 13:37:17;;;;;;;2.50;1.50;;;22.50;1.00;;;;;;4925564;29;20431;-87
2023/04/13 13:39:46;;;;;;;2.37;1.57;;;21.70;1.00;;;;;;4916382;29;21046;-84
2023/04/13 13:42:20;;;;;;;2.70;1.40;;;21.20;1.00;;;;;;4923344;29;20468;-84
2023/04/13 13:44:47;;;;;;;1.67;1.47;;;21.80;1.00;;;;;;4924349;29;21117;-86
2023/04/13 13:47:14;;;;;;;1.57;1.07;;;22.70;1.00;;;;;;4925591;29;20464;-86
2023/04/13 13:49:41;;;;;;;2.40;1.20;;;24.50;1.00;;;;;;4923947;29;20489;-84
2023/04/13 13:52:10;;;;;;;4.20;3.73;;;25.40;1.00;;;;;;4924491;29;20458;-84
2023/04/13 13:54:37;;;;;;;4.07;2.90;;;25.50;1.00;;;;;;4921004;29;21009;-84
2023/04/13 13:57:06;;;;;;;2.67;1.10;;;25.30;1.00;;;;;;4918312;29;21248;-80
2023/04/13 13:59:39;;;;;;;1.30;1.20;;;24.90;1.00;;;;;;4919432;29;20566;-81
2023/04/13 14:02:15;;;;;;;1.83;1.67;;;26.20;1.00;;;;;;4919513;29;20479;-82
2023/04/13 14:04:42;;;;;;;2.43;0.80;;;27.90;1.00;;;;;;4915750;29;20668;-80
2023/04/13 14:07:10;;;;;;;2.10;1.50;;;29.40;1.00;;;;;;4920333;29;20442;-79
2023/04/13 14:09:38;;;;;;;2.40;1.70;;;29.30;1.00;;;;;;4917385;29;20462;-88
2023/04/13 14:12:05;;;;;;;2.67;1.87;;;28.80;1.00;;;;;;4920608;29;20591;-88
2023/04/13 14:14:43;;;;;;;2.73;1.43;;;28.90;1.00;;;;;;4924641;29;20443;-85
2023/04/13 14:17:10;;;;;;;4.67;4.27;;;28.60;1.00;;;;;;4918976;29;20631;-83
2023/04/13 14:19:42;;;;;;;2.20;1.43;;;28.80;1.00;;;;;;4899503;29;20453;-82
2023/04/13 14:22:11;;;;;;;4.07;1.73;;;28.30;1.00;;;;;;4910313;29;20474;-81